• Join FlightAware (Why Join?)
  • Login
  • US Flag 
06:33AM EDT


 

Airport Tracker/Info


-or-


 

Live Flight TrackerFlight Track Log ✈ SKW5479 ✈ 02-May-2012 ✈ KSFO - KMRY

Flight Track Log - Related Links

Times and Time Zones

All times are in EDT time to prevent confusion due to time zone crossing. See the SKW5479 flight status page for this flight to view local times or setup timezone preferences in your user account.

Time Position Orientation Groundspeed Altitude Reporting Facility
EDT Latitude Longitude Course Direction KTS MPH feet Rate Location/Type
11:59PM 37.6333 -122.3667 360° North 137 158 800  Level Northern Cal TRACON
12:00AM 37.6667 -122.3667 238° Southwest 149 171 2,700 1,920 Climbing Northern Cal TRACON
12:01AM 37.6500 -122.4000 165° South 184 212 4,500 1,680 Climbing Northern Cal TRACON
12:02AM 37.6000 -122.3833 169° South 186 214 6,100 1,200 Climbing Northern Cal TRACON
12:03AM 37.5333 -122.3667 152° Southeast 210 242 7,100 420 Climbing Northern Cal TRACON
12:04AM 37.4833 -122.3333 158° South 252 290 7,100  Level Northern Cal TRACON
12:05AM 37.4167 -122.3000 162° South 261 300 7,100  Level Northern Cal TRACON
12:06AM 37.3333 -122.2667 158° South 257 296 7,100  Level Northern Cal TRACON
12:07AM 37.2667 -122.2333 158° South 253 291 7,100 -60 Level Northern Cal TRACON
12:08AM 37.2000 -122.2000 158° South 251 289 7,000 -60 Descending Northern Cal TRACON
12:09AM 37.1333 -122.1667 169° South 249 287 7,000  Level Northern Cal TRACON
12:10AM 37.0667 -122.1500 152° Southeast 251 289 7,000  Level Northern Cal TRACON
12:11AM 37.0167 -122.1167 162° South 252 290 7,000  Level Northern Cal TRACON
12:12AM 36.9333 -122.0833 152° Southeast 253 291 7,000 -120 Level Northern Cal TRACON
12:13AM 36.8833 -122.0500 162° South 253 291 6,800 -900 Descending Northern Cal TRACON
12:14AM 36.8000 -122.0167 158° South 270 311 5,200 -1,560 Descending Northern Cal TRACON
12:15AM 36.7333 -121.9833 169° South 272 313 3,500 -1,620 Descending Northern Cal TRACON
12:16AM 36.6667 -121.9667 141° Southeast 263 303 2,100 -1,020 Descending Northern Cal TRACON
12:17AM 36.6167 -121.9167 113° Southeast 214 246 1,500 -900 Descending Northern Cal TRACON
12:18AM 36.6000 -121.8667 122° Southeast 140 161 400 -660 Descending Northern Cal TRACON
12:19AM 36.5833 -121.8333 122° Southeast 137 158 300 -120 Descending Northern Cal TRACON